< < Back
Terminal Aerodrome Forecast


Current Version              Previous Versions:   1  2  3  4  5  6  7  8  9  

Terminal Aerodrome Forecast

978
FTAK31 PAJN 031740
TAFAGS
TAF
PAGS 031740Z 0318/0418 32008KT P6SM SKC
     FM032100 26008KT P6SM SCT100
     FM040300 VRB03KT P6SM SCT100 SCT200
      AMD LTD TO CLD VIS AND WIND=



Latest METAR

994
SAUS70 KWBC 032100 RRE
MTRAGS
METAR KAGS 032053Z 14009G21KT 10SM BKN050 BKN120 31/24 A2988 RMK AO2
SLP116 T03060239 55005


USA.gov is the U.S. government's official web portal to all federal, state and local government web resources and services.